Celestial Wing — H9JT — position and weather

sailwx.info

Track history (hours):
 
Tides and Currents Weather Stations Pressure Air Temp Water Temp Dewpoint Dewpoint Depression Visibility Wind Speed Wind Dir Waves Ship Positions

Celestial Wing

Last reported at 2018-Jan-20 05:46 UTC. Time now 2018-Jan-20 15:14 UTC.
Position N 39°14' E 014°31'.

Length 180 m; beam 30 m.

Type: Cargo ship. MMSI: 356145000.

Date/timePositionNaut miles runAvg speedWind from/ knotsBaromVisibWave heightAir tempDewpointWater temp
2018-Jan-20 05:46N 39°14' E 014°31'414.7
2018-Jan-20 05:29N 39°11' E 014°35'3415.2
2018-Jan-20 03:16N 38°46' E 015°05'515.4
2018-Jan-20 02:59N 38°43' E 015°09'715.3
2018-Jan-20 02:30N 38°38' E 015°16'815.7
2018-Jan-20 02:00N 38°33' E 015°23'815.6
2018-Jan-20 01:30N 38°27' E 015°30'815.2
2018-Jan-20 01:00N 38°22' E 015°37'711.1
2018-Jan-20 00:22N 38°15' E 015°40'512.3
2018-Jan-20 00:00N 38°11' E 015°37'714.2
2018-Jan-19 23:30N 38°04' E 015°36'714.6
2018-Jan-19 23:00N 37°57' E 015°37'815.6
2018-Jan-19 22:30N 37°52' E 015°44'815.4
2018-Jan-19 22:00N 37°52' E 015°54'39412.0
2018-Jan-18 13:13N 44°15' E 013°54'516.0
2018-Jan-18 12:55N 44°19' E 013°51'916.0
2018-Jan-18 12:22N 44°26' E 013°44'615.9
2018-Jan-18 12:00N 44°31' E 013°39'815.7
2018-Jan-18 11:30N 44°38' E 013°33'815.6
2018-Jan-18 11:00N 44°44' E 013°27'815.5
2018-Jan-18 10:30N 44°51' E 013°21'815.1
2018-Jan-18 10:00N 44°57' E 013°15'714.9
2018-Jan-18 09:30N 45°04' E 013°11'714.9
2018-Jan-18 09:00N 45°10' E 013°04'715.0
2018-Jan-18 08:30N 45°17' E 013°03'714.0
2018-Jan-18 08:00N 45°24' E 013°04'815.1
2018-Jan-18 07:30N 45°29' E 013°12'714.9
2018-Jan-18 07:00N 45°34' E 013°20'714.9
2018-Jan-18 06:30N 45°37' E 013°30'612.8
2018-Jan-18 06:01N 45°36' E 013°39'4 8.4
2018-Jan-18 05:30N 45°33' E 013°44'0 0.5
2018-Jan-18 04:59N 45°34' E 013°44'0 0.0
2018-Jan-18 04:29N 45°34' E 013°44'0 0.0
2018-Jan-18 03:59N 45°34' E 013°44'0 0.0
2018-Jan-18 03:29N 45°34' E 013°44'0 0.0
2018-Jan-18 02:59N 45°34' E 013°44'0 0.0
2018-Jan-18 02:29N 45°34' E 013°44'0 0.0
2018-Jan-18 01:59N 45°34' E 013°44'0 0.0
2018-Jan-18 01:29N 45°34' E 013°44'0 0.0
2018-Jan-18 00:59N 45°34' E 013°44'0 0.0
2018-Jan-17 23:59N 45°34' E 013°44'0 0.0
2018-Jan-17 23:56N 45°34' E 013°44'  
2018-Jan-11 15:47N 36°35' E 014°45'616.7
2018-Jan-11 15:25N 36°38' E 014°38'716.5
2018-Jan-11 14:59N 36°41' E 014°30'816.3
2018-Jan-11 14:30N 36°44' E 014°21'816.3
2018-Jan-11 14:00N 36°47' E 014°12'815.9
2018-Jan-11 13:30N 36°51' E 014°03'815.1
2018-Jan-11 13:00N 36°54' E 013°54'815.5
2018-Jan-11 12:30N 36°57' E 013°46'816.7
2018-Jan-11 12:00N 37°01' E 013°36'24516.0
2018-Jan-10 20:42N 38°39' E 008°52'416.4
2018-Jan-10 20:27N 38°40' E 008°48'2315.9
2018-Jan-10 19:00N 38°47' E 008°19'1716.8
2018-Jan-10 18:00N 38°52' E 007°59'  
Track history (hours):
 
Tides and Currents Weather Stations Pressure Air Temp Water Temp Dewpoint Dewpoint Depression Visibility Wind Speed Wind Dir Waves Ship Positions

Celestial Wing

Last reported at 2018-Jan-20 05:46 UTC. Time now 2018-Jan-20 15:14 UTC.
Position N 39°14' E 014°31'.

Length 180 m; beam 30 m.

Type: Cargo ship. MMSI: 356145000.

Date/timePositionNaut miles runAvg speedWind from/ knotsBaromVisibWave heightAir tempDewpointWater temp
2018-Jan-20 05:46N 39°14' E 014°31'414.7
2018-Jan-20 05:29N 39°11' E 014°35'3415.2
2018-Jan-20 03:16N 38°46' E 015°05'515.4
2018-Jan-20 02:59N 38°43' E 015°09'715.3
2018-Jan-20 02:30N 38°38' E 015°16'815.7
2018-Jan-20 02:00N 38°33' E 015°23'815.6
2018-Jan-20 01:30N 38°27' E 015°30'815.2
2018-Jan-20 01:00N 38°22' E 015°37'711.1
2018-Jan-20 00:22N 38°15' E 015°40'512.3
2018-Jan-20 00:00N 38°11' E 015°37'714.2
2018-Jan-19 23:30N 38°04' E 015°36'714.6
2018-Jan-19 23:00N 37°57' E 015°37'815.6
2018-Jan-19 22:30N 37°52' E 015°44'815.4
2018-Jan-19 22:00N 37°52' E 015°54'39412.0
2018-Jan-18 13:13N 44°15' E 013°54'516.0
2018-Jan-18 12:55N 44°19' E 013°51'916.0
2018-Jan-18 12:22N 44°26' E 013°44'615.9
2018-Jan-18 12:00N 44°31' E 013°39'815.7
2018-Jan-18 11:30N 44°38' E 013°33'815.6
2018-Jan-18 11:00N 44°44' E 013°27'815.5
2018-Jan-18 10:30N 44°51' E 013°21'815.1
2018-Jan-18 10:00N 44°57' E 013°15'714.9
2018-Jan-18 09:30N 45°04' E 013°11'714.9
2018-Jan-18 09:00N 45°10' E 013°04'715.0
2018-Jan-18 08:30N 45°17' E 013°03'714.0
2018-Jan-18 08:00N 45°24' E 013°04'815.1
2018-Jan-18 07:30N 45°29' E 013°12'714.9
2018-Jan-18 07:00N 45°34' E 013°20'714.9
2018-Jan-18 06:30N 45°37' E 013°30'612.8
2018-Jan-18 06:01N 45°36' E 013°39'4 8.4
2018-Jan-18 05:30N 45°33' E 013°44'0 0.5
2018-Jan-18 04:59N 45°34' E 013°44'0 0.0
2018-Jan-18 04:29N 45°34' E 013°44'0 0.0
2018-Jan-18 03:59N 45°34' E 013°44'0 0.0
2018-Jan-18 03:29N 45°34' E 013°44'0 0.0
2018-Jan-18 02:59N 45°34' E 013°44'0 0.0
2018-Jan-18 02:29N 45°34' E 013°44'0 0.0
2018-Jan-18 01:59N 45°34' E 013°44'0 0.0
2018-Jan-18 01:29N 45°34' E 013°44'0 0.0
2018-Jan-18 00:59N 45°34' E 013°44'0 0.0
2018-Jan-17 23:59N 45°34' E 013°44'0 0.0
2018-Jan-17 23:56N 45°34' E 013°44'  
2018-Jan-11 15:47N 36°35' E 014°45'616.7
2018-Jan-11 15:25N 36°38' E 014°38'716.5
2018-Jan-11 14:59N 36°41' E 014°30'816.3
2018-Jan-11 14:30N 36°44' E 014°21'816.3
2018-Jan-11 14:00N 36°47' E 014°12'815.9
2018-Jan-11 13:30N 36°51' E 014°03'815.1
2018-Jan-11 13:00N 36°54' E 013°54'815.5
2018-Jan-11 12:30N 36°57' E 013°46'816.7
2018-Jan-11 12:00N 37°01' E 013°36'24516.0
2018-Jan-10 20:42N 38°39' E 008°52'416.4
2018-Jan-10 20:27N 38°40' E 008°48'2315.9
2018-Jan-10 19:00N 38°47' E 008°19'1716.8
2018-Jan-10 18:00N 38°52' E 007°59'  

Dump ship's entire track history